KGRF METAR and TAF | Updated Today

KGRF METAR

Gray Army Air Field

Observation time: 55 min. ago

KGRF 011455Z AUTO 12004KT 10SM CLR M02/M04 A3012 RMK AO2 SLP206 T10211044 56007 $

Need help? Read our tutorial on how to read METARs or read the parsed version below.

Gray Army Air Field (KGRF) METAR

  • Weather conditions on Wed, 01 Feb 2023 14:55:00 +0000 (55 min. ago):
  • Present conditions: Dry
  • Clouds: Clear skies
  • Visibility: 16093 meters
  • Wind: 120 degrees at 4 knots
  • Temperature: -2 celsius
  • Dew point: -4 celsius
  • Pressure: 30.12 inHg
  • Remarks: AO2 SLP206 T10211044 56007 $


Useful to know...

KGRF TAF

Gray Army Air Field

TAF KGRF 011300Z 0113/0219 VRB04KT 9999 OVC130 QNH3010INS BECMG 0117/0118 16005KT 9999 SCT120 QNH3011INS TX07/0123Z TNM03/0116Z
Observation time: 2:50 hr. ago
Need help? Read our tutorial on how to read TAFs or read the parsed version below.

Parsed version of TAF for Gray Army Air Field (KGRF)

  • From 01 February at 13:00 UTC, to day 02 of the month at 19:00 UTC
  • Clouds: Overcast sky at 3962 meters
  • Visibility: Greater than 10 km
  • Wind: Variable at 4
  • Expected to arise soon, from 01 February at 17:00 UTC, to day 01 of the month at 18:00 UTC
  • Clouds: Scattered at 3658 meters
  • Visibility: Greater than 10 km
  • Wind: 160 degrees at 5